
Distance (Route):
Temperature : -54.1°C
Humidity : 7.8%
Pressure : 0hPa| Receiver | Frames | First received | Last received |
|---|---|---|---|
| LY3OO-11 | 273 | 2026-09-02 11:33:38 | 2026-09-02 13:12:30 |
| Receiver | Date | Latitude | Longitude | Direction | Speed | Altitude | Climb | Temperature | Humidity | Pressure | Voltage | Killtimer | Uptime | BKT | XDATA |
|---|---|---|---|---|---|---|---|---|---|---|---|---|---|---|---|
| LY3OO-11 | 2026-09-02 13:12:30 | -18.53272 | -83.23292 | 0° | 0km/h | 4m | 0.0m/s | -54.1°C | 7.8% | 0hPa | 0V | 00:00:00 | 00:00:00 | 00:00:00 | |
| LY3OO-11 | 2026-09-02 13:12:09 | -12.03706 | -77.06196 | 0° | 0km/h | 1044m | 0.0m/s | -52.0°C | 5.0% | 0hPa | 0V | 00:00:00 | 00:00:00 | 00:00:00 | |
| LY3OO-11 | 2026-09-02 13:11:49 | -12.03706 | -77.06196 | 0° | 0km/h | 1044m | 0.0m/s | -48.8°C | 3.3% | 0hPa | 0V | 00:00:00 | 00:00:00 | 00:00:00 | |
| LY3OO-11 | 2026-09-02 13:11:28 | -12.03706 | -77.06196 | 0° | 0km/h | 1044m | 0.0m/s | -48.5°C | 3.4% | 0hPa | 0V | 00:00:00 | 00:00:00 | 00:00:00 | |
| LY3OO-11 | 2026-09-02 13:11:08 | -12.03706 | -77.06196 | 0° | 0km/h | 1044m | 0.0m/s | -47.0°C | 3.0% | 0hPa | 0V | 00:00:00 | 00:00:00 | 00:00:00 | |
| LY3OO-11 | 2026-09-02 13:10:48 | -12.03706 | -77.06196 | 0° | 0km/h | 1044m | 0.0m/s | -48.1°C | 3.1% | 0hPa | 0V | 00:00:00 | 00:00:00 | 00:00:00 | |
| LY3OO-11 | 2026-09-02 13:10:27 | -12.03706 | -77.06196 | 0° | 0km/h | 1044m | 0.0m/s | -49.7°C | 3.3% | 0hPa | 0V | 00:00:00 | 00:00:00 | 00:00:00 | |
| LY3OO-11 | 2026-09-02 13:10:07 | -12.03706 | -77.06196 | 0° | 0km/h | 1044m | 0.0m/s | -50.0°C | 3.6% | 0hPa | 0V | 00:00:00 | 00:00:00 | 00:00:00 | |
| LY3OO-11 | 2026-09-02 13:09:46 | -12.04592 | -77.05588 | 315° | 203km/h | 984m | -0.9m/s | -48.1°C | 3.1% | 0hPa | 0V | 00:00:00 | 00:00:00 | 00:00:00 | |
| LY3OO-11 | 2026-09-02 13:09:25 | -12.04770 | -77.04588 | 247° | 197km/h | 991m | 0.7m/s | -47.8°C | 2.9% | 0hPa | 0V | 00:00:00 | 00:00:00 | 00:00:00 | |
| LY3OO-11 | 2026-09-02 13:08:08 | -12.03944 | -77.05876 | 360° | 195km/h | 979m | -2.0m/s | -51.1°C | 3.7% | 0hPa | 0V | 00:00:00 | 00:00:00 | 00:00:00 | |
| LY3OO-11 | 2026-09-02 13:07:46 | -12.04796 | -77.05245 | 291° | 199km/h | 989m | 0.5m/s | -50.2°C | 3.4% | 0hPa | 0V | 00:00:00 | 00:00:00 | 00:00:00 | |
| LY3OO-11 | 2026-09-02 13:07:25 | -12.04538 | -77.04266 | 222° | 197km/h | 990m | 0.9m/s | -51.4°C | 3.8% | 0hPa | 0V | 00:00:00 | 00:00:00 | 00:00:00 | |
| LY3OO-11 | 2026-09-02 13:07:02 | -12.03453 | -77.04181 | 149° | 199km/h | 985m | 1.0m/s | -49.4°C | 3.4% | 0hPa | 0V | 00:00:00 | 00:00:00 | 00:00:00 | |
| LY3OO-11 | 2026-09-02 13:06:42 | -12.03035 | -77.05060 | 85° | 199km/h | 982m | 0.4m/s | -49.3°C | 3.5% | 0hPa | 0V | 00:00:00 | 00:00:00 | 00:00:00 | |
| LY3OO-11 | 2026-09-02 13:06:21 | -12.03684 | -77.05842 | 17° | 197km/h | 981m | 1.1m/s | -48.9°C | 3.6% | 0hPa | 0V | 00:00:00 | 00:00:00 | 00:00:00 | |
| LY3OO-11 | 2026-09-02 13:06:00 | -12.04643 | -77.05539 | 310° | 199km/h | 980m | 0.1m/s | -46.9°C | 3.3% | 0hPa | 0V | 00:00:00 | 00:00:00 | 00:00:00 | |
| LY3OO-11 | 2026-09-02 13:05:39 | -12.04732 | -77.04523 | 242° | 199km/h | 981m | 0.9m/s | -45.2°C | 3.2% | 0hPa | 0V | 00:00:00 | 00:00:00 | 00:00:00 | |
| LY3OO-11 | 2026-09-02 13:05:19 | -12.03894 | -77.04043 | 179° | 199km/h | 982m | -1.4m/s | -42.4°C | 2.9% | 0hPa | 0V | 00:00:00 | 00:00:00 | 00:00:00 | |
| LY3OO-11 | 2026-09-02 13:04:59 | -12.03107 | -77.04600 | 114° | 197km/h | 984m | 0.5m/s | -39.7°C | 2.6% | 0hPa | 0V | 00:00:00 | 00:00:00 | 00:00:00 | |
| LY3OO-11 | 2026-09-02 13:04:31 | -12.03581 | -77.05799 | 25° | 199km/h | 988m | 1.5m/s | -34.5°C | 1.9% | 0hPa | 0V | 00:00:00 | 00:00:00 | 00:00:00 | |
| LY3OO-11 | 2026-09-02 13:04:04 | -12.04744 | -77.05369 | 297° | 195km/h | 974m | 0.8m/s | -35.2°C | 1.9% | 0hPa | 0V | 00:00:00 | 00:00:00 | 00:00:00 | |
| LY3OO-11 | 2026-09-02 13:03:42 | -12.04584 | -77.04320 | 227° | 199km/h | 959m | 1.1m/s | -36.2°C | 2.0% | 0hPa | 0V | 00:00:00 | 00:00:00 | 00:00:00 | |
| LY3OO-11 | 2026-09-02 13:03:19 | -12.03507 | -77.04134 | 153° | 201km/h | 917m | 1.7m/s | -36.9°C | 2.1% | 0hPa | 0V | 00:00:00 | 00:00:00 | 00:00:00 | |
| LY3OO-11 | 2026-09-02 13:02:59 | -12.03018 | -77.04897 | 89° | 199km/h | 773m | -0.1m/s | -37.3°C | 2.2% | 0hPa | 0V | 00:00:00 | 00:00:00 | 00:00:00 | |
| LY3OO-11 | 2026-09-02 13:02:36 | -21.87395 | -6.25734 | 0° | 0km/h | 14m | 0.0m/s | -37.8°C | 2.3% | 0hPa | 0V | 00:00:00 | 00:00:00 | 00:00:00 | |
| LY3OO-11 | 2026-09-02 13:02:16 | -21.87395 | -6.25734 | 0° | 0km/h | 14m | 0.0m/s | -38.0°C | 2.4% | 0hPa | 0V | 00:00:00 | 00:00:00 | 00:00:00 | |
| LY3OO-11 | 2026-09-02 13:01:56 | -22.61932 | -59.27229 | 0° | 0km/h | 3141m | 0.0m/s | -38.8°C | 1.8% | 0hPa | 0V | 00:00:00 | 00:00:00 | 00:00:00 | |
| LY3OO-11 | 2026-09-02 13:01:34 | -22.61932 | -59.27229 | 0° | 0km/h | 3141m | 0.0m/s | -39.1°C | 1.9% | 0hPa | 0V | 00:00:00 | 00:00:00 | 00:00:00 | |
| LY3OO-11 | 2026-09-02 13:01:13 | -22.61932 | -59.27229 | 0° | 0km/h | 3141m | 0.0m/s | -39.8°C | 1.9% | 0hPa | 0V | 00:00:00 | 00:00:00 | 00:00:00 | |
| LY3OO-11 | 2026-09-02 13:00:51 | -22.61932 | -59.27229 | 0° | 0km/h | 3141m | 0.0m/s | -40.8°C | 2.0% | 0hPa | 0V | 00:00:00 | 00:00:00 | 00:00:00 | |
| LY3OO-11 | 2026-09-02 13:00:29 | -22.61932 | -59.27229 | 0° | 0km/h | 3141m | 0.0m/s | -41.3°C | 2.1% | 0hPa | 0V | 00:00:00 | 00:00:00 | 00:00:00 | |
| LY3OO-11 | 2026-09-02 13:00:07 | -22.61932 | -59.27229 | 0° | 0km/h | 3141m | 0.0m/s | -40.9°C | 2.1% | 0hPa | 0V | 00:00:00 | 00:00:00 | 00:00:00 | |
| LY3OO-11 | 2026-09-02 12:59:42 | -22.61932 | -59.27229 | 0° | 0km/h | 3141m | 0.0m/s | -40.4°C | 2.0% | 0hPa | 0V | 00:00:00 | 00:00:00 | 00:00:00 | |
| LY3OO-11 | 2026-09-02 12:59:21 | -22.61932 | -59.27229 | 0° | 0km/h | 3141m | 0.0m/s | -40.9°C | 2.0% | 0hPa | 0V | 00:00:00 | 00:00:00 | 00:00:00 | |
| LY3OO-11 | 2026-09-02 12:59:01 | -22.61932 | -59.27229 | 0° | 0km/h | 3141m | 0.0m/s | -41.1°C | 2.0% | 0hPa | 0V | 00:00:00 | 00:00:00 | 00:00:00 | |
| LY3OO-11 | 2026-09-02 12:58:40 | -22.61932 | -59.27229 | 0° | 0km/h | 3141m | 0.0m/s | -41.7°C | 2.1% | 0hPa | 0V | 00:00:00 | 00:00:00 | 00:00:00 | |
| LY3OO-11 | 2026-09-02 12:58:19 | -22.61932 | -59.27229 | 0° | 0km/h | 3141m | 0.0m/s | -41.9°C | 2.1% | 0hPa | 0V | 00:00:00 | 00:00:00 | 00:00:00 | |
| LY3OO-11 | 2026-09-02 12:57:59 | -22.61932 | -59.27229 | 0° | 0km/h | 3141m | 0.0m/s | -42.4°C | 2.2% | 0hPa | 0V | 00:00:00 | 00:00:00 | 00:00:00 | |
| LY3OO-11 | 2026-09-02 12:57:38 | -38.27166 | 167.39410 | 0° | 0km/h | 20m | 0.0m/s | -42.5°C | 2.8% | 0hPa | 0V | 00:00:00 | 00:00:00 | 00:00:00 | |
| LY3OO-11 | 2026-09-02 12:57:17 | -38.27166 | 167.39410 | 0° | 0km/h | 20m | 0.0m/s | -43.4°C | 2.9% | 0hPa | 0V | 00:00:00 | 00:00:00 | 00:00:00 | |
| LY3OO-11 | 2026-09-02 12:56:56 | -38.27166 | 167.39410 | 0° | 0km/h | 20m | 0.0m/s | -43.5°C | 3.0% | 0hPa | 0V | 00:00:00 | 00:00:00 | 00:00:00 | |
| LY3OO-11 | 2026-09-02 12:56:35 | -38.27166 | 167.39410 | 0° | 0km/h | 20m | 0.0m/s | -43.2°C | 2.9% | 0hPa | 0V | 00:00:00 | 00:00:00 | 00:00:00 | |
| LY3OO-11 | 2026-09-02 12:56:14 | -38.27166 | 167.39410 | 0° | 0km/h | 20m | 0.0m/s | -43.5°C | 3.0% | 0hPa | 0V | 00:00:00 | 00:00:00 | 00:00:00 | |
| LY3OO-11 | 2026-09-02 12:55:53 | -38.27166 | 167.39410 | 0° | 0km/h | 20m | 0.0m/s | -43.9°C | 3.1% | 0hPa | 0V | 00:00:00 | 00:00:00 | 00:00:00 | |
| LY3OO-11 | 2026-09-02 12:55:32 | -38.27166 | 167.39410 | 0° | 0km/h | 20m | 0.0m/s | -44.0°C | 3.1% | 0hPa | 0V | 00:00:00 | 00:00:00 | 00:00:00 | |
| LY3OO-11 | 2026-09-02 12:55:11 | -38.27166 | 167.39410 | 0° | 0km/h | 20m | 0.0m/s | -44.6°C | 3.1% | 0hPa | 0V | 00:00:00 | 00:00:00 | 00:00:00 | |
| LY3OO-11 | 2026-09-02 12:54:50 | -38.27166 | 167.39410 | 0° | 0km/h | 20m | 0.0m/s | -45.4°C | 3.1% | 0hPa | 0V | 00:00:00 | 00:00:00 | 00:00:00 | |
| LY3OO-11 | 2026-09-02 12:54:30 | -38.27166 | 167.39410 | 0° | 0km/h | 20m | 0.0m/s | -46.2°C | 3.4% | 0hPa | 0V | 00:00:00 | 00:00:00 | 00:00:00 | |
| LY3OO-11 | 2026-09-02 12:54:10 | -38.27166 | 167.39410 | 0° | 0km/h | 20m | 0.0m/s | -46.0°C | 3.4% | 0hPa | 0V | 00:00:00 | 00:00:00 | 00:00:00 | |
| LY3OO-11 | 2026-09-02 12:53:49 | -38.27166 | 167.39410 | 0° | 0km/h | 20m | 0.0m/s | -45.7°C | 3.3% | 0hPa | 0V | 00:00:00 | 00:00:00 | 00:00:00 | |
| LY3OO-11 | 2026-09-02 12:53:29 | -38.27166 | 167.39410 | 0° | 0km/h | 20m | 0.0m/s | -45.9°C | 3.3% | 0hPa | 0V | 00:00:00 | 00:00:00 | 00:00:00 | |
| LY3OO-11 | 2026-09-02 12:53:08 | -38.27166 | 167.39410 | 0° | 0km/h | 20m | 0.0m/s | -45.8°C | 3.2% | 0hPa | 0V | 00:00:00 | 00:00:00 | 00:00:00 | |
| LY3OO-11 | 2026-09-02 12:52:48 | -38.27166 | 167.39410 | 0° | 0km/h | 20m | 0.0m/s | -46.2°C | 3.2% | 0hPa | 0V | 00:00:00 | 00:00:00 | 00:00:00 | |
| LY3OO-11 | 2026-09-02 12:52:29 | -38.27166 | 167.39410 | 0° | 0km/h | 20m | 0.0m/s | -46.6°C | 3.3% | 0hPa | 0V | 00:00:00 | 00:00:00 | 00:00:00 | |
| LY3OO-11 | 2026-09-02 12:52:07 | -38.27166 | 167.39410 | 0° | 0km/h | 20m | 0.0m/s | -46.7°C | 3.4% | 0hPa | 0V | 00:00:00 | 00:00:00 | 00:00:00 | |
| LY3OO-11 | 2026-09-02 12:51:47 | -38.27166 | 167.39410 | 0° | 0km/h | 20m | 0.0m/s | -47.0°C | 3.5% | 0hPa | 0V | 00:00:00 | 00:00:00 | 00:00:00 | |
| LY3OO-11 | 2026-09-02 12:51:27 | -38.27166 | 167.39410 | 0° | 0km/h | 20m | 0.0m/s | -47.4°C | 3.4% | 0hPa | 0V | 00:00:00 | 00:00:00 | 00:00:00 | |
| LY3OO-11 | 2026-09-02 12:51:06 | -38.27166 | 167.39410 | 0° | 0km/h | 20m | 0.0m/s | -47.7°C | 3.5% | 0hPa | 0V | 00:00:00 | 00:00:00 | 00:00:00 | |
| LY3OO-11 | 2026-09-02 12:50:45 | -38.27166 | 167.39410 | 0° | 0km/h | 20m | 0.0m/s | -48.1°C | 3.6% | 0hPa | 0V | 00:00:00 | 00:00:00 | 00:00:00 | |
| LY3OO-11 | 2026-09-02 12:50:25 | -38.27166 | 167.39410 | 0° | 0km/h | 20m | 0.0m/s | -48.0°C | 3.5% | 0hPa | 0V | 00:00:00 | 00:00:00 | 00:00:00 | |
| LY3OO-11 | 2026-09-02 12:50:04 | -38.27166 | 167.39410 | 0° | 0km/h | 20m | 0.0m/s | -48.1°C | 3.6% | 0hPa | 0V | 00:00:00 | 00:00:00 | 00:00:00 | |
| LY3OO-11 | 2026-09-02 12:49:45 | -38.27166 | 167.39410 | 0° | 0km/h | 20m | 0.0m/s | -48.3°C | 3.6% | 0hPa | 0V | 00:00:00 | 00:00:00 | 00:00:00 | |
| LY3OO-11 | 2026-09-02 12:49:24 | -38.27166 | 167.39410 | 0° | 0km/h | 20m | 0.0m/s | -48.5°C | 3.6% | 0hPa | 0V | 00:00:00 | 00:00:00 | 00:00:00 | |
| LY3OO-11 | 2026-09-02 12:49:03 | -38.27166 | 167.39410 | 0° | 0km/h | 20m | 0.0m/s | -48.4°C | 3.6% | 0hPa | 0V | 00:00:00 | 00:00:00 | 00:00:00 | |
| LY3OO-11 | 2026-09-02 12:48:42 | -38.27166 | 167.39410 | 0° | 0km/h | 20m | 0.0m/s | -48.2°C | 3.6% | 0hPa | 0V | 00:00:00 | 00:00:00 | 00:00:00 | |
| LY3OO-11 | 2026-09-02 12:48:22 | -38.27166 | 167.39410 | 0° | 0km/h | 20m | 0.0m/s | -48.8°C | 3.6% | 0hPa | 0V | 00:00:00 | 00:00:00 | 00:00:00 | |
| LY3OO-11 | 2026-09-02 12:48:01 | -38.27166 | 167.39410 | 0° | 0km/h | 20m | 0.0m/s | -49.2°C | 3.7% | 0hPa | 0V | 00:00:00 | 00:00:00 | 00:00:00 | |
| LY3OO-11 | 2026-09-02 12:47:41 | -38.27166 | 167.39410 | 0° | 0km/h | 20m | 0.0m/s | -49.0°C | 3.6% | 0hPa | 0V | 00:00:00 | 00:00:00 | 00:00:00 | |
| LY3OO-11 | 2026-09-02 12:47:20 | -38.27166 | 167.39410 | 0° | 0km/h | 20m | 0.0m/s | -49.3°C | 3.8% | 0hPa | 0V | 00:00:00 | 00:00:00 | 00:00:00 | |
| LY3OO-11 | 2026-09-02 12:46:59 | -38.27166 | 167.39410 | 0° | 0km/h | 20m | 0.0m/s | -49.5°C | 3.8% | 0hPa | 0V | 00:00:00 | 00:00:00 | 00:00:00 | |
| LY3OO-11 | 2026-09-02 12:46:39 | -38.27166 | 167.39410 | 0° | 0km/h | 20m | 0.0m/s | -49.7°C | 3.8% | 0hPa | 0V | 00:00:00 | 00:00:00 | 00:00:00 | |
| LY3OO-11 | 2026-09-02 12:46:18 | -38.27166 | 167.39410 | 0° | 0km/h | 20m | 0.0m/s | -49.8°C | 3.9% | 0hPa | 0V | 00:00:00 | 00:00:00 | 00:00:00 | |
| LY3OO-11 | 2026-09-02 12:45:57 | -38.27166 | 167.39410 | 0° | 0km/h | 20m | 0.0m/s | -49.7°C | 3.8% | 0hPa | 0V | 00:00:00 | 00:00:00 | 00:00:00 | |
| LY3OO-11 | 2026-09-02 12:45:36 | -38.27166 | 167.39410 | 0° | 0km/h | 20m | 0.0m/s | -49.8°C | 3.8% | 0hPa | 0V | 00:00:00 | 00:00:00 | 00:00:00 | |
| LY3OO-11 | 2026-09-02 12:45:15 | -38.27166 | 167.39410 | 0° | 0km/h | 20m | 0.0m/s | -49.9°C | 3.9% | 0hPa | 0V | 00:00:00 | 00:00:00 | 00:00:00 | |
| LY3OO-11 | 2026-09-02 12:44:54 | -38.27166 | 167.39410 | 0° | 0km/h | 20m | 0.0m/s | -49.6°C | 3.8% | 0hPa | 0V | 00:00:00 | 00:00:00 | 00:00:00 | |
| LY3OO-11 | 2026-09-02 12:44:34 | -38.27166 | 167.39410 | 0° | 0km/h | 20m | 0.0m/s | -49.7°C | 3.8% | 0hPa | 0V | 00:00:00 | 00:00:00 | 00:00:00 | |
| LY3OO-11 | 2026-09-02 12:44:14 | -38.27166 | 167.39410 | 0° | 0km/h | 20m | 0.0m/s | -49.9°C | 3.8% | 0hPa | 0V | 00:00:00 | 00:00:00 | 00:00:00 | |
| LY3OO-11 | 2026-09-02 12:43:53 | -38.27166 | 167.39410 | 0° | 0km/h | 20m | 0.0m/s | -50.2°C | 3.9% | 0hPa | 0V | 00:00:00 | 00:00:00 | 00:00:00 | |
| LY3OO-11 | 2026-09-02 12:43:33 | -38.27166 | 167.39410 | 0° | 0km/h | 20m | 0.0m/s | -50.1°C | 3.9% | 0hPa | 0V | 00:00:00 | 00:00:00 | 00:00:00 | |
| LY3OO-11 | 2026-09-02 12:43:12 | -38.27166 | 167.39410 | 0° | 0km/h | 20m | 0.0m/s | -50.0°C | 3.8% | 0hPa | 0V | 00:00:00 | 00:00:00 | 00:00:00 | |
| LY3OO-11 | 2026-09-02 12:42:52 | -38.27166 | 167.39410 | 0° | 0km/h | 20m | 0.0m/s | -50.6°C | 4.0% | 0hPa | 0V | 00:00:00 | 00:00:00 | 00:00:00 | |
| LY3OO-11 | 2026-09-02 12:42:31 | -38.27166 | 167.39410 | 0° | 0km/h | 20m | 0.0m/s | -50.6°C | 3.8% | 0hPa | 0V | 00:00:00 | 00:00:00 | 00:00:00 | |
| LY3OO-11 | 2026-09-02 12:42:10 | -38.27166 | 167.39410 | 0° | 0km/h | 20m | 0.0m/s | -50.9°C | 4.1% | 0hPa | 0V | 00:00:00 | 00:00:00 | 00:00:00 | |
| LY3OO-11 | 2026-09-02 12:41:50 | -38.27166 | 167.39410 | 0° | 0km/h | 20m | 0.0m/s | -50.7°C | 3.8% | 0hPa | 0V | 00:00:00 | 00:00:00 | 00:00:00 | |
| LY3OO-11 | 2026-09-02 12:41:29 | -38.27166 | 167.39410 | 0° | 0km/h | 20m | 0.0m/s | -50.9°C | 3.9% | 0hPa | 0V | 00:00:00 | 00:00:00 | 00:00:00 | |
| LY3OO-11 | 2026-09-02 12:41:09 | -38.27166 | 167.39410 | 0° | 0km/h | 20m | 0.0m/s | -51.1°C | 4.0% | 0hPa | 0V | 00:00:00 | 00:00:00 | 00:00:00 | |
| LY3OO-11 | 2026-09-02 12:40:49 | -38.27166 | 167.39410 | 0° | 0km/h | 20m | 0.0m/s | -51.9°C | 4.1% | 0hPa | 0V | 00:00:00 | 00:00:00 | 00:00:00 | |
| LY3OO-11 | 2026-09-02 12:40:29 | -38.27166 | 167.39410 | 0° | 0km/h | 20m | 0.0m/s | -51.8°C | 4.3% | 0hPa | 0V | 00:00:00 | 00:00:00 | 00:00:00 | |
| LY3OO-11 | 2026-09-02 12:40:08 | -38.27166 | 167.39410 | 0° | 0km/h | 20m | 0.0m/s | -51.1°C | 4.1% | 0hPa | 0V | 00:00:00 | 00:00:00 | 00:00:00 | |
| LY3OO-11 | 2026-09-02 12:39:48 | -38.27166 | 167.39410 | 0° | 0km/h | 20m | 0.0m/s | -51.2°C | 4.1% | 0hPa | 0V | 00:00:00 | 00:00:00 | 00:00:00 | |
| LY3OO-11 | 2026-09-02 12:39:27 | -38.27166 | 167.39410 | 0° | 0km/h | 20m | 0.0m/s | -51.0°C | 4.1% | 0hPa | 0V | 00:00:00 | 00:00:00 | 00:00:00 | |
| LY3OO-11 | 2026-09-02 12:39:06 | -38.27166 | 167.39410 | 0° | 0km/h | 20m | 0.0m/s | -50.7°C | 3.9% | 0hPa | 0V | 00:00:00 | 00:00:00 | 00:00:00 | |
| LY3OO-11 | 2026-09-02 12:38:46 | -38.27166 | 167.39410 | 0° | 0km/h | 20m | 0.0m/s | -51.0°C | 4.0% | 0hPa | 0V | 00:00:00 | 00:00:00 | 00:00:00 | |
| LY3OO-11 | 2026-09-02 12:38:25 | -38.27166 | 167.39410 | 0° | 0km/h | 20m | 0.0m/s | -51.4°C | 4.2% | 0hPa | 0V | 00:00:00 | 00:00:00 | 00:00:00 | |
| LY3OO-11 | 2026-09-02 12:38:05 | -38.27166 | 167.39410 | 0° | 0km/h | 20m | 0.0m/s | -50.8°C | 4.1% | 0hPa | 0V | 00:00:00 | 00:00:00 | 00:00:00 | |
| LY3OO-11 | 2026-09-02 12:37:45 | -38.27166 | 167.39410 | 0° | 0km/h | 20m | 0.0m/s | -50.5°C | 3.9% | 0hPa | 0V | 00:00:00 | 00:00:00 | 00:00:00 | |
| LY3OO-11 | 2026-09-02 12:37:24 | -38.27166 | 167.39410 | 0° | 0km/h | 20m | 0.0m/s | -50.8°C | 3.8% | 0hPa | 0V | 00:00:00 | 00:00:00 | 00:00:00 | |
| LY3OO-11 | 2026-09-02 12:37:03 | -38.27166 | 167.39410 | 0° | 0km/h | 20m | 0.0m/s | -51.3°C | 4.1% | 0hPa | 0V | 00:00:00 | 00:00:00 | 00:00:00 | |
| LY3OO-11 | 2026-09-02 12:36:44 | -38.27166 | 167.39410 | 0° | 0km/h | 20m | 0.0m/s | -51.8°C | 4.2% | 0hPa | 0V | 00:00:00 | 00:00:00 | 00:00:00 | |
| LY3OO-11 | 2026-09-02 12:36:22 | -38.27166 | 167.39410 | 0° | 0km/h | 20m | 0.0m/s | -51.4°C | 4.1% | 0hPa | 0V | 00:00:00 | 00:00:00 | 00:00:00 | |
| LY3OO-11 | 2026-09-02 12:36:02 | -38.27166 | 167.39410 | 0° | 0km/h | 20m | 0.0m/s | -51.0°C | 4.1% | 0hPa | 0V | 00:00:00 | 00:00:00 | 00:00:00 | |
| LY3OO-11 | 2026-09-02 12:35:42 | -38.27166 | 167.39410 | 0° | 0km/h | 20m | 0.0m/s | -50.8°C | 4.0% | 0hPa | 0V | 00:00:00 | 00:00:00 | 00:00:00 | |
| LY3OO-11 | 2026-09-02 12:35:20 | -38.27166 | 167.39410 | 0° | 0km/h | 20m | 0.0m/s | -51.0°C | 3.9% | 0hPa | 0V | 00:00:00 | 00:00:00 | 00:00:00 | |
| LY3OO-11 | 2026-09-02 12:34:59 | -38.27166 | 167.39410 | 0° | 0km/h | 20m | 0.0m/s | -51.3°C | 4.0% | 0hPa | 0V | 00:00:00 | 00:00:00 | 00:00:00 | |
| LY3OO-11 | 2026-09-02 12:34:39 | -38.27166 | 167.39410 | 0° | 0km/h | 20m | 0.0m/s | -51.5°C | 4.1% | 0hPa | 0V | 00:00:00 | 00:00:00 | 00:00:00 | |
| LY3OO-11 | 2026-09-02 12:34:18 | -38.27166 | 167.39410 | 0° | 0km/h | 20m | 0.0m/s | -51.4°C | 4.0% | 0hPa | 0V | 00:00:00 | 00:00:00 | 00:00:00 | |
| LY3OO-11 | 2026-09-02 12:33:57 | -38.27166 | 167.39410 | 0° | 0km/h | 20m | 0.0m/s | -52.6°C | 4.5% | 0hPa | 0V | 00:00:00 | 00:00:00 | 00:00:00 | |
| LY3OO-11 | 2026-09-02 12:33:37 | -38.27166 | 167.39410 | 0° | 0km/h | 20m | 0.0m/s | -52.3°C | 4.3% | 0hPa | 0V | 00:00:00 | 00:00:00 | 00:00:00 | |
| LY3OO-11 | 2026-09-02 12:33:16 | -38.27166 | 167.39410 | 0° | 0km/h | 20m | 0.0m/s | -52.4°C | 4.2% | 0hPa | 0V | 00:00:00 | 00:00:00 | 00:00:00 | |
| LY3OO-11 | 2026-09-02 12:32:56 | -38.27166 | 167.39410 | 0° | 0km/h | 20m | 0.0m/s | -52.2°C | 4.3% | 0hPa | 0V | 00:00:00 | 00:00:00 | 00:00:00 | |
| LY3OO-11 | 2026-09-02 12:32:35 | -38.27166 | 167.39410 | 0° | 0km/h | 20m | 0.0m/s | -52.2°C | 4.3% | 0hPa | 0V | 00:00:00 | 00:00:00 | 00:00:00 | |
| LY3OO-11 | 2026-09-02 12:32:15 | -38.27166 | 167.39410 | 0° | 0km/h | 20m | 0.0m/s | -51.7°C | 4.2% | 0hPa | 0V | 00:00:00 | 00:00:00 | 00:00:00 | |
| LY3OO-11 | 2026-09-02 12:31:55 | -38.27166 | 167.39410 | 0° | 0km/h | 20m | 0.0m/s | -51.5°C | 4.2% | 0hPa | 0V | 00:00:00 | 00:00:00 | 00:00:00 | |
| LY3OO-11 | 2026-09-02 12:31:35 | -38.27166 | 167.39410 | 0° | 0km/h | 20m | 0.0m/s | -51.5°C | 4.2% | 0hPa | 0V | 00:00:00 | 00:00:00 | 00:00:00 | |
| LY3OO-11 | 2026-09-02 12:31:14 | -38.27166 | 167.39410 | 0° | 0km/h | 20m | 0.0m/s | -52.0°C | 4.2% | 0hPa | 0V | 00:00:00 | 00:00:00 | 00:00:00 | |
| LY3OO-11 | 2026-09-02 12:30:54 | -38.27166 | 167.39410 | 0° | 0km/h | 20m | 0.0m/s | -51.4°C | 4.1% | 0hPa | 0V | 00:00:00 | 00:00:00 | 00:00:00 | |
| LY3OO-11 | 2026-09-02 12:30:34 | -38.27166 | 167.39410 | 0° | 0km/h | 20m | 0.0m/s | -51.0°C | 4.0% | 0hPa | 0V | 00:00:00 | 00:00:00 | 00:00:00 | |
| LY3OO-11 | 2026-09-02 12:30:13 | -38.27166 | 167.39410 | 0° | 0km/h | 20m | 0.0m/s | -51.0°C | 4.0% | 0hPa | 0V | 00:00:00 | 00:00:00 | 00:00:00 | |
| LY3OO-11 | 2026-09-02 12:29:52 | -38.27166 | 167.39410 | 0° | 0km/h | 20m | 0.0m/s | -50.8°C | 4.0% | 0hPa | 0V | 00:00:00 | 00:00:00 | 00:00:00 | |
| LY3OO-11 | 2026-09-02 12:29:30 | -38.27166 | 167.39410 | 0° | 0km/h | 20m | 0.0m/s | -50.0°C | 3.9% | 0hPa | 0V | 00:00:00 | 00:00:00 | 00:00:00 | |
| LY3OO-11 | 2026-09-02 12:29:10 | -38.27166 | 167.39410 | 0° | 0km/h | 20m | 0.0m/s | -49.9°C | 3.9% | 0hPa | 0V | 00:00:00 | 00:00:00 | 00:00:00 | |
| LY3OO-11 | 2026-09-02 12:28:50 | -38.27166 | 167.39410 | 0° | 0km/h | 20m | 0.0m/s | -49.9°C | 3.8% | 0hPa | 0V | 00:00:00 | 00:00:00 | 00:00:00 | |
| LY3OO-11 | 2026-09-02 12:28:29 | -38.27166 | 167.39410 | 0° | 0km/h | 20m | 0.0m/s | -49.9°C | 3.8% | 0hPa | 0V | 00:00:00 | 00:00:00 | 00:00:00 | |
| LY3OO-11 | 2026-09-02 12:28:08 | -38.27166 | 167.39410 | 0° | 0km/h | 20m | 0.0m/s | -49.7°C | 3.8% | 0hPa | 0V | 00:00:00 | 00:00:00 | 00:00:00 | |
| LY3OO-11 | 2026-09-02 12:27:47 | -38.27166 | 167.39410 | 0° | 0km/h | 20m | 0.0m/s | -49.6°C | 3.8% | 0hPa | 0V | 00:00:00 | 00:00:00 | 00:00:00 | |
| LY3OO-11 | 2026-09-02 12:27:27 | -38.27166 | 167.39410 | 0° | 0km/h | 20m | 0.0m/s | -49.4°C | 3.8% | 0hPa | 0V | 00:00:00 | 00:00:00 | 00:00:00 | |
| LY3OO-11 | 2026-09-02 12:27:05 | -38.27166 | 167.39410 | 0° | 0km/h | 20m | 0.0m/s | -49.7°C | 3.8% | 0hPa | 0V | 00:00:00 | 00:00:00 | 00:00:00 | |
| LY3OO-11 | 2026-09-02 12:26:12 | -38.27166 | 167.39410 | 0° | 0km/h | 20m | 0.0m/s | -50.6°C | 4.0% | 0hPa | 0V | 00:00:00 | 00:00:00 | 00:00:00 | |
| LY3OO-11 | 2026-09-02 12:25:47 | -38.27166 | 167.39410 | 0° | 0km/h | 20m | 0.0m/s | -50.1°C | 4.0% | 0hPa | 0V | 00:00:00 | 00:00:00 | 00:00:00 | |
| LY3OO-11 | 2026-09-02 12:25:26 | -38.27166 | 167.39410 | 0° | 0km/h | 20m | 0.0m/s | -49.8°C | 3.9% | 0hPa | 0V | 00:00:00 | 00:00:00 | 00:00:00 | |
| LY3OO-11 | 2026-09-02 12:25:05 | -38.27166 | 167.39410 | 0° | 0km/h | 20m | 0.0m/s | -49.5°C | 3.9% | 0hPa | 0V | 00:00:00 | 00:00:00 | 00:00:00 | |
| LY3OO-11 | 2026-09-02 12:24:45 | -38.27166 | 167.39410 | 0° | 0km/h | 20m | 0.0m/s | -49.2°C | 3.8% | 0hPa | 0V | 00:00:00 | 00:00:00 | 00:00:00 | |
| LY3OO-11 | 2026-09-02 12:24:24 | -38.27166 | 167.39410 | 0° | 0km/h | 20m | 0.0m/s | -48.8°C | 3.8% | 0hPa | 0V | 00:00:00 | 00:00:00 | 00:00:00 | |
| LY3OO-11 | 2026-09-02 12:24:03 | -38.27166 | 167.39410 | 0° | 0km/h | 20m | 0.0m/s | -48.3°C | 3.8% | 0hPa | 0V | 00:00:00 | 00:00:00 | 00:00:00 | |
| LY3OO-11 | 2026-09-02 12:23:44 | -38.27166 | 167.39410 | 0° | 0km/h | 20m | 0.0m/s | -47.7°C | 3.7% | 0hPa | 0V | 00:00:00 | 00:00:00 | 00:00:00 | |
| LY3OO-11 | 2026-09-02 12:23:22 | -38.27166 | 167.39410 | 0° | 0km/h | 20m | 0.0m/s | -47.1°C | 3.4% | 0hPa | 0V | 00:00:00 | 00:00:00 | 00:00:00 | |
| LY3OO-11 | 2026-09-02 12:22:28 | 48.55362 | 36.18078 | 0° | 0km/h | 73m | 0.0m/s | -47.9°C | 3.4% | 0hPa | 0V | 00:00:00 | 00:00:00 | 00:00:00 | |
| LY3OO-11 | 2026-09-02 12:20:37 | 54.66940 | 23.85892 | 0° | 0km/h | 155m | 0.0m/s | -49.7°C | 3.7% | 0hPa | 0V | 00:00:00 | 00:00:00 | 00:00:00 | |
| LY3OO-11 | 2026-09-02 12:20:17 | 54.66940 | 23.85892 | 0° | 0km/h | 155m | 0.0m/s | -50.1°C | 3.8% | 0hPa | 0V | 00:00:00 | 00:00:00 | 00:00:00 | |
| LY3OO-11 | 2026-09-02 12:19:56 | -8.18667 | -51.89106 | 0° | 0km/h | 301m | 0.0m/s | -50.0°C | 3.8% | 0hPa | 0V | 00:00:00 | 00:00:00 | 00:00:00 | |
| LY3OO-11 | 2026-09-02 12:19:36 | 3.05842 | -27.83934 | 0° | 0km/h | 5m | 0.0m/s | -49.8°C | 3.8% | 0hPa | 0V | 00:00:00 | 00:00:00 | 00:00:00 | |
| LY3OO-11 | 2026-09-02 12:19:16 | 54.84082 | 24.37235 | 0° | 0km/h | 15617m | 0.0m/s | -49.5°C | 1.4% | 0hPa | 0V | 00:00:00 | 00:00:00 | 00:00:00 | |
| LY3OO-11 | 2026-09-02 12:18:55 | 54.84082 | 24.37235 | 0° | 0km/h | 15617m | 0.0m/s | -49.4°C | 1.4% | 0hPa | 0V | 00:00:00 | 00:00:00 | 00:00:00 | |
| LY3OO-11 | 2026-09-02 12:18:35 | 54.84082 | 24.37235 | 0° | 0km/h | 15617m | 0.0m/s | -49.2°C | 1.4% | 0hPa | 0V | 00:00:00 | 00:00:00 | 00:00:00 | |
| LY3OO-11 | 2026-09-02 12:18:14 | 54.84082 | 24.37235 | 0° | 0km/h | 15617m | 0.0m/s | -49.7°C | 1.5% | 0hPa | 0V | 00:00:00 | 00:00:00 | 00:00:00 | |
| LY3OO-11 | 2026-09-02 12:17:53 | 54.84065 | 24.36990 | 83° | 38km/h | 15555m | 4.5m/s | -49.5°C | 1.5% | 0hPa | 0V | 00:00:00 | 00:00:00 | 00:00:00 | |
| LY3OO-11 | 2026-09-02 12:17:32 | 54.84063 | 24.36623 | 100° | 40km/h | 15456m | 6.3m/s | -49.5°C | 1.5% | 0hPa | 0V | 00:00:00 | 00:00:00 | 00:00:00 | |
| LY3OO-11 | 2026-09-02 12:17:12 | 54.84081 | 24.36242 | 91° | 38km/h | 15362m | 6.5m/s | -49.1°C | 1.4% | 0hPa | 0V | 00:00:00 | 00:00:00 | 00:00:00 | |
| LY3OO-11 | 2026-09-02 12:16:52 | 54.84076 | 24.35893 | 74° | 42km/h | 15249m | 4.5m/s | -49.1°C | 1.5% | 0hPa | 0V | 00:00:00 | 00:00:00 | 00:00:00 | |
| LY3OO-11 | 2026-09-02 12:16:31 | 54.84055 | 24.35551 | 93° | 40km/h | 15146m | 4.1m/s | -48.9°C | 1.4% | 0hPa | 0V | 00:00:00 | 00:00:00 | 00:00:00 | |
| LY3OO-11 | 2026-09-02 12:16:11 | 54.84033 | 24.35223 | 79° | 35km/h | 15044m | 6.2m/s | -48.7°C | 1.5% | 0hPa | 0V | 00:00:00 | 00:00:00 | 00:00:00 | |
| LY3OO-11 | 2026-09-02 12:15:50 | 54.83999 | 24.34883 | 83° | 40km/h | 14938m | 4.6m/s | -48.6°C | 1.5% | 0hPa | 0V | 00:00:00 | 00:00:00 | 00:00:00 | |
| LY3OO-11 | 2026-09-02 12:15:30 | 54.83944 | 24.34563 | 70° | 33km/h | 14833m | 4.8m/s | -48.4°C | 1.5% | 0hPa | 0V | 00:00:00 | 00:00:00 | 00:00:00 | |
| LY3OO-11 | 2026-09-02 12:15:09 | 54.83899 | 24.34234 | 68° | 40km/h | 14735m | 5.9m/s | -48.3°C | 1.5% | 0hPa | 0V | 00:00:00 | 00:00:00 | 00:00:00 | |
| LY3OO-11 | 2026-09-02 12:14:48 | 54.83803 | 24.33887 | 70° | 37km/h | 14635m | 4.1m/s | -47.9°C | 1.5% | 0hPa | 0V | 00:00:00 | 00:00:00 | 00:00:00 | |
| LY3OO-11 | 2026-09-02 12:14:29 | 54.83740 | 24.33580 | 80° | 37km/h | 14538m | 5.6m/s | -47.9°C | 1.5% | 0hPa | 0V | 00:00:00 | 00:00:00 | 00:00:00 | |
| LY3OO-11 | 2026-09-02 12:14:07 | 54.83681 | 24.33291 | 65° | 33km/h | 14434m | 4.6m/s | -47.6°C | 1.5% | 0hPa | 0V | 00:00:00 | 00:00:00 | 00:00:00 | |
| LY3OO-11 | 2026-09-02 12:13:46 | 54.83603 | 24.32971 | 66° | 37km/h | 14332m | 4.2m/s | -47.8°C | 1.5% | 0hPa | 0V | 00:00:00 | 00:00:00 | 00:00:00 | |
| LY3OO-11 | 2026-09-02 12:13:26 | 54.83564 | 24.32642 | 86° | 46km/h | 14234m | 6.3m/s | -47.0°C | 1.5% | 0hPa | 0V | 00:00:00 | 00:00:00 | 00:00:00 | |
| LY3OO-11 | 2026-09-02 12:13:05 | 54.83537 | 24.32201 | 77° | 57km/h | 14123m | 5.7m/s | -47.5°C | 1.5% | 0hPa | 0V | 00:00:00 | 00:00:00 | 00:00:00 | |
| LY3OO-11 | 2026-09-02 12:12:45 | 54.83478 | 24.31761 | 81° | 47km/h | 14019m | 5.4m/s | -47.9°C | 1.6% | 0hPa | 0V | 00:00:00 | 00:00:00 | 00:00:00 | |
| LY3OO-11 | 2026-09-02 12:12:24 | 54.83452 | 24.31356 | 90° | 49km/h | 13917m | 4.9m/s | -48.1°C | 1.6% | 0hPa | 0V | 00:00:00 | 00:00:00 | 00:00:00 | |
| LY3OO-11 | 2026-09-02 12:12:04 | 54.83422 | 24.30908 | 77° | 51km/h | 13819m | 6.1m/s | -48.2°C | 1.6% | 0hPa | 0V | 00:00:00 | 00:00:00 | 00:00:00 | |
| LY3OO-11 | 2026-09-02 12:11:43 | 54.83363 | 24.30429 | 74° | 47km/h | 13712m | 4.3m/s | -49.1°C | 1.7% | 0hPa | 0V | 00:00:00 | 00:00:00 | 00:00:00 | |
| LY3OO-11 | 2026-09-02 12:11:23 | 54.83310 | 24.30006 | 79° | 49km/h | 13599m | 6.8m/s | -49.1°C | 1.7% | 0hPa | 0V | 00:00:00 | 00:00:00 | 00:00:00 | |
| LY3OO-11 | 2026-09-02 12:11:02 | 54.83269 | 24.29621 | 78° | 46km/h | 13472m | 5.1m/s | -48.7°C | 1.7% | 0hPa | 0V | 00:00:00 | 00:00:00 | 00:00:00 | |
| LY3OO-11 | 2026-09-02 12:10:41 | 54.83235 | 24.29221 | 88° | 51km/h | 13353m | 4.7m/s | -48.9°C | 1.7% | 0hPa | 0V | 00:00:00 | 00:00:00 | 00:00:00 | |
| LY3OO-11 | 2026-09-02 12:10:20 | 54.83194 | 24.28756 | 75° | 47km/h | 13247m | 4.2m/s | -49.9°C | 1.9% | 0hPa | 0V | 00:00:00 | 00:00:00 | 00:00:00 | |
| LY3OO-11 | 2026-09-02 12:09:59 | 54.83131 | 24.28350 | 74° | 57km/h | 13128m | 6.9m/s | -49.8°C | 1.9% | 0hPa | 0V | 00:00:00 | 00:00:00 | 00:00:00 | |
| LY3OO-11 | 2026-09-02 12:09:38 | 54.83073 | 24.27884 | 70° | 46km/h | 12995m | 6.1m/s | -49.3°C | 1.8% | 0hPa | 0V | 00:00:00 | 00:00:00 | 00:00:00 | |
| LY3OO-11 | 2026-09-02 12:09:17 | 54.83001 | 24.27432 | 81° | 49km/h | 12880m | 6.0m/s | -48.7°C | 1.8% | 0hPa | 0V | 00:00:00 | 00:00:00 | 00:00:00 | |
| LY3OO-11 | 2026-09-02 12:08:58 | 54.82948 | 24.26950 | 83° | 66km/h | 12781m | 5.0m/s | -49.1°C | 1.9% | 0hPa | 0V | 00:00:00 | 00:00:00 | 00:00:00 | |
| LY3OO-11 | 2026-09-02 12:08:37 | 54.82879 | 24.26382 | 82° | 60km/h | 12688m | 4.9m/s | -49.5°C | 2.1% | 0hPa | 0V | 00:00:00 | 00:00:00 | 00:00:00 | |
| LY3OO-11 | 2026-09-02 12:08:17 | 54.82829 | 24.25942 | 83° | 51km/h | 12596m | 4.8m/s | -50.2°C | 2.5% | 0hPa | 0V | 00:00:00 | 00:00:00 | 00:00:00 | |
| LY3OO-11 | 2026-09-02 12:07:56 | 54.82798 | 24.25447 | 83° | 55km/h | 12503m | 4.3m/s | -51.6°C | 3.2% | 0hPa | 0V | 00:00:00 | 00:00:00 | 00:00:00 | |
| LY3OO-11 | 2026-09-02 12:07:35 | 54.82732 | 24.24908 | 75° | 64km/h | 12409m | 5.7m/s | -52.1°C | 3.5% | 0hPa | 0V | 00:00:00 | 00:00:00 | 00:00:00 | |
| LY3OO-11 | 2026-09-02 12:07:15 | 54.82637 | 24.24442 | 71° | 47km/h | 12312m | 5.4m/s | -52.6°C | 3.9% | 0hPa | 0V | 00:00:00 | 00:00:00 | 00:00:00 | |
| LY3OO-11 | 2026-09-02 12:06:54 | 54.82585 | 24.24036 | 88° | 42km/h | 12200m | 3.5m/s | -52.3°C | 3.9% | 0hPa | 0V | 00:00:00 | 00:00:00 | 00:00:00 | |
| LY3OO-11 | 2026-09-02 12:06:34 | 54.82580 | 24.23691 | 96° | 40km/h | 12106m | 4.0m/s | -52.4°C | 4.1% | 0hPa | 0V | 00:00:00 | 00:00:00 | 00:00:00 | |
| LY3OO-11 | 2026-09-02 12:06:13 | 54.82577 | 24.23313 | 86° | 46km/h | 12008m | 4.8m/s | -51.8°C | 4.1% | 0hPa | 0V | 00:00:00 | 00:00:00 | 00:00:00 | |
| LY3OO-11 | 2026-09-02 12:05:53 | 54.82556 | 24.22949 | 82° | 46km/h | 11905m | 4.6m/s | -51.2°C | 4.3% | 0hPa | 0V | 00:00:00 | 00:00:00 | 00:00:00 | |
| LY3OO-11 | 2026-09-02 12:05:32 | 54.82532 | 24.22560 | 77° | 46km/h | 11804m | 4.4m/s | -51.1°C | 4.5% | 0hPa | 0V | 00:00:00 | 00:00:00 | 00:00:00 | |
| LY3OO-11 | 2026-09-02 12:05:11 | 54.82461 | 24.22124 | 74° | 46km/h | 11699m | 5.6m/s | -51.3°C | 5.7% | 0hPa | 0V | 00:00:00 | 00:00:00 | 00:00:00 | |
| LY3OO-11 | 2026-09-02 12:04:51 | 54.82423 | 24.21734 | 84° | 46km/h | 11600m | 5.1m/s | -52.2°C | 9.2% | 0hPa | 0V | 00:00:00 | 00:00:00 | 00:00:00 | |
| LY3OO-11 | 2026-09-02 12:04:30 | 54.82425 | 24.21286 | 99° | 55km/h | 11506m | 2.9m/s | -54.6°C | 13.3% | 0hPa | 0V | 00:00:00 | 00:00:00 | 00:00:00 | |
| LY3OO-11 | 2026-09-02 12:04:09 | 54.82436 | 24.20817 | 92° | 49km/h | 11418m | 3.5m/s | -54.9°C | 14.8% | 0hPa | 0V | 00:00:00 | 00:00:00 | 00:00:00 | |
| LY3OO-11 | 2026-09-02 12:03:49 | 54.82461 | 24.20370 | 93° | 60km/h | 11332m | 4.8m/s | -56.2°C | 19.8% | 0hPa | 0V | 00:00:00 | 00:00:00 | 00:00:00 | |
| LY3OO-11 | 2026-09-02 12:03:28 | 54.82483 | 24.19892 | 85° | 55km/h | 11231m | 4.7m/s | -55.7°C | 20.1% | 0hPa | 0V | 00:00:00 | 00:00:00 | 00:00:00 | |
| LY3OO-11 | 2026-09-02 12:03:07 | 54.82496 | 24.19456 | 95° | 47km/h | 11107m | 5.2m/s | -55.4°C | 22.7% | 0hPa | 0V | 00:00:00 | 00:00:00 | 00:00:00 | |
| LY3OO-11 | 2026-09-02 12:02:49 | 54.82541 | 24.19058 | 111° | 40km/h | 11019m | 4.3m/s | -55.3°C | 24.3% | 0hPa | 0V | 00:00:00 | 00:00:00 | 00:00:00 | |
| LY3OO-11 | 2026-09-02 12:02:27 | 54.82576 | 24.18663 | 95° | 42km/h | 10920m | 3.3m/s | -54.8°C | 23.4% | 0hPa | 0V | 00:00:00 | 00:00:00 | 00:00:00 | |
| LY3OO-11 | 2026-09-02 12:02:06 | 54.82614 | 24.18244 | 99° | 44km/h | 10819m | 4.0m/s | -54.6°C | 23.4% | 0hPa | 0V | 00:00:00 | 00:00:00 | 00:00:00 | |
| LY3OO-11 | 2026-09-02 12:01:46 | 54.82710 | 24.17817 | 112° | 55km/h | 10707m | 4.0m/s | -54.5°C | 26.8% | 0hPa | 0V | 00:00:00 | 00:00:00 | 00:00:00 | |
| LY3OO-11 | 2026-09-02 12:01:05 | 54.82938 | 24.16810 | 108° | 69km/h | 10469m | 7.8m/s | -53.9°C | 38.1% | 0hPa | 0V | 00:00:00 | 00:00:00 | 00:00:00 | |
| LY3OO-11 | 2026-09-02 12:00:44 | 54.83099 | 24.16216 | 106° | 66km/h | 10355m | 6.4m/s | -53.3°C | 38.2% | 0hPa | 0V | 00:00:00 | 00:00:00 | 00:00:00 | |
| LY3OO-11 | 2026-09-02 12:00:23 | 54.83255 | 24.15638 | 121° | 80km/h | 10238m | 6.0m/s | -52.4°C | 40.3% | 0hPa | 0V | 00:00:00 | 00:00:00 | 00:00:00 | |
| LY3OO-11 | 2026-09-02 12:00:04 | 54.83445 | 24.15095 | 123° | 80km/h | 10131m | 3.4m/s | -51.5°C | 37.8% | 0hPa | 0V | 00:00:00 | 00:00:00 | 00:00:00 | |
| LY3OO-11 | 2026-09-02 11:59:42 | 54.83649 | 24.14483 | 122° | 75km/h | 10036m | 3.8m/s | -50.7°C | 35.6% | 0hPa | 0V | 00:00:00 | 00:00:00 | 00:00:00 | |
| LY3OO-11 | 2026-09-02 11:59:21 | 54.83854 | 24.13884 | 121° | 77km/h | 9942m | 3.1m/s | -49.8°C | 32.3% | 0hPa | 0V | 00:00:00 | 00:00:00 | 00:00:00 | |
| LY3OO-11 | 2026-09-02 11:59:00 | 54.84042 | 24.13271 | 122° | 75km/h | 9848m | 7.0m/s | -49.1°C | 26.7% | 0hPa | 0V | 00:00:00 | 00:00:00 | 00:00:00 | |
| LY3OO-11 | 2026-09-02 11:58:40 | 54.84243 | 24.12680 | 123° | 64km/h | 9740m | 2.6m/s | -48.2°C | 27.8% | 0hPa | 0V | 00:00:00 | 00:00:00 | 00:00:00 | |
| LY3OO-11 | 2026-09-02 11:58:18 | 54.84460 | 24.12144 | 124° | 73km/h | 9651m | 4.9m/s | -47.6°C | 29.7% | 0hPa | 0V | 00:00:00 | 00:00:00 | 00:00:00 | |
| LY3OO-11 | 2026-09-02 11:57:59 | 54.84665 | 24.11647 | 133° | 82km/h | 9544m | 3.4m/s | -46.7°C | 28.0% | 0hPa | 0V | 00:00:00 | 00:00:00 | 00:00:00 | |
| LY3OO-11 | 2026-09-02 11:57:38 | 54.84872 | 24.11153 | 127° | 57km/h | 9435m | 5.2m/s | -46.1°C | 27.5% | 0hPa | 0V | 00:00:00 | 00:00:00 | 00:00:00 | |
| LY3OO-11 | 2026-09-02 11:57:16 | 54.85083 | 24.10674 | 126° | 64km/h | 9307m | 7.2m/s | -45.1°C | 25.6% | 0hPa | 0V | 00:00:00 | 00:00:00 | 00:00:00 | |
| LY3OO-11 | 2026-09-02 11:56:56 | 54.85296 | 24.10224 | 128° | 60km/h | 9197m | 5.6m/s | -44.1°C | 21.5% | 0hPa | 0V | 00:00:00 | 00:00:00 | 00:00:00 | |
| LY3OO-11 | 2026-09-02 11:56:36 | 54.85490 | 24.09728 | 127° | 60km/h | 9087m | 5.5m/s | -43.3°C | 20.1% | 0hPa | 0V | 00:00:00 | 00:00:00 | 00:00:00 | |
| LY3OO-11 | 2026-09-02 11:56:16 | 54.85691 | 24.09256 | 124° | 68km/h | 8972m | 5.9m/s | -42.5°C | 19.8% | 0hPa | 0V | 00:00:00 | 00:00:00 | 00:00:00 | |
| LY3OO-11 | 2026-09-02 11:55:55 | 54.85874 | 24.08759 | 131° | 66km/h | 8854m | 3.8m/s | -41.6°C | 24.2% | 0hPa | 0V | 00:00:00 | 00:00:00 | 00:00:00 | |
| LY3OO-11 | 2026-09-02 11:55:34 | 54.86010 | 24.08275 | 103° | 64km/h | 8744m | 3.8m/s | -41.0°C | 28.4% | 0hPa | 0V | 00:00:00 | 00:00:00 | 00:00:00 | |
| LY3OO-11 | 2026-09-02 11:55:15 | 54.86114 | 24.07782 | 110° | 60km/h | 8628m | 3.5m/s | -40.1°C | 27.9% | 0hPa | 0V | 00:00:00 | 00:00:00 | 00:00:00 | |
| LY3OO-11 | 2026-09-02 11:54:54 | 54.86227 | 24.07331 | 110° | 66km/h | 8530m | 5.1m/s | -39.5°C | 35.9% | 0hPa | 0V | 00:00:00 | 00:00:00 | 00:00:00 | |
| LY3OO-11 | 2026-09-02 11:54:34 | 54.86332 | 24.06853 | 121° | 53km/h | 8418m | 4.2m/s | -39.1°C | 53.4% | 0hPa | 0V | 00:00:00 | 00:00:00 | 00:00:00 | |
| LY3OO-11 | 2026-09-02 11:54:12 | 54.86411 | 24.06452 | 123° | 47km/h | 8306m | 5.0m/s | -38.0°C | 48.9% | 0hPa | 0V | 00:00:00 | 00:00:00 | 00:00:00 | |
| LY3OO-11 | 2026-09-02 11:53:53 | 54.86479 | 24.06088 | 117° | 44km/h | 8203m | 8.0m/s | -37.2°C | 46.0% | 0hPa | 0V | 00:00:00 | 00:00:00 | 00:00:00 | |
| LY3OO-11 | 2026-09-02 11:53:33 | 54.86514 | 24.05751 | 100° | 53km/h | 8070m | 3.9m/s | -36.2°C | 54.8% | 0hPa | 0V | 00:00:00 | 00:00:00 | 00:00:00 | |
| LY3OO-11 | 2026-09-02 11:53:11 | 54.86549 | 24.05390 | 109° | 35km/h | 7956m | 8.7m/s | -35.3°C | 62.8% | 0hPa | 0V | 00:00:00 | 00:00:00 | 00:00:00 | |
| LY3OO-11 | 2026-09-02 11:52:52 | 54.86580 | 24.05035 | 96° | 46km/h | 7854m | 6.9m/s | -34.3°C | 61.4% | 0hPa | 0V | 00:00:00 | 00:00:00 | 00:00:00 | |
| LY3OO-11 | 2026-09-02 11:52:31 | 54.86626 | 24.04653 | 121° | 26km/h | 7743m | 2.9m/s | -33.3°C | 63.7% | 0hPa | 0V | 00:00:00 | 00:00:00 | 00:00:00 | |
| LY3OO-11 | 2026-09-02 11:52:10 | 54.86645 | 24.04297 | 112° | 33km/h | 7629m | 4.9m/s | -32.4°C | 60.9% | 0hPa | 0V | 00:00:00 | 00:00:00 | 00:00:00 | |
| LY3OO-11 | 2026-09-02 11:51:50 | 54.86680 | 24.03956 | 116° | 42km/h | 7514m | 4.1m/s | -31.4°C | 63.0% | 0hPa | 0V | 00:00:00 | 00:00:00 | 00:00:00 | |
| LY3OO-11 | 2026-09-02 11:51:30 | 54.86700 | 24.03642 | 100° | 37km/h | 7404m | 6.7m/s | -30.6°C | 65.1% | 0hPa | 0V | 00:00:00 | 00:00:00 | 00:00:00 | |
| LY3OO-11 | 2026-09-02 11:51:09 | 54.86743 | 24.03312 | 102° | 27km/h | 7295m | 4.0m/s | -29.5°C | 61.7% | 0hPa | 0V | 00:00:00 | 00:00:00 | 00:00:00 | |
| LY3OO-11 | 2026-09-02 11:50:48 | 54.86769 | 24.02979 | 84° | 37km/h | 7172m | 8.7m/s | -28.5°C | 50.4% | 0hPa | 0V | 00:00:00 | 00:00:00 | 00:00:00 | |
| LY3OO-11 | 2026-09-02 11:50:27 | 54.86796 | 24.02673 | 94° | 29km/h | 7050m | 4.3m/s | -27.4°C | 39.4% | 0hPa | 0V | 00:00:00 | 00:00:00 | 00:00:00 | |
| LY3OO-11 | 2026-09-02 11:50:07 | 54.86814 | 24.02360 | 78° | 29km/h | 6926m | 5.8m/s | -26.7°C | 57.2% | 0hPa | 0V | 00:00:00 | 00:00:00 | 00:00:00 | |
| LY3OO-11 | 2026-09-02 11:49:46 | 54.86807 | 24.02062 | 89° | 35km/h | 6801m | 6.4m/s | -25.7°C | 61.4% | 0hPa | 0V | 00:00:00 | 00:00:00 | 00:00:00 | |
| LY3OO-11 | 2026-09-02 11:49:26 | 54.86805 | 24.01751 | 98° | 42km/h | 6676m | 5.6m/s | -24.7°C | 61.1% | 0hPa | 0V | 00:00:00 | 00:00:00 | 00:00:00 | |
| LY3OO-11 | 2026-09-02 11:49:05 | 54.86820 | 24.01363 | 89° | 40km/h | 6542m | 6.5m/s | -23.9°C | 79.2% | 0hPa | 0V | 00:00:00 | 00:00:00 | 00:00:00 | |
| LY3OO-11 | 2026-09-02 11:48:45 | 54.86816 | 24.00958 | 88° | 47km/h | 6410m | 6.2m/s | -22.8°C | 75.9% | 0hPa | 0V | 00:00:00 | 00:00:00 | 00:00:00 | |
| LY3OO-11 | 2026-09-02 11:48:25 | 54.86823 | 24.00566 | 92° | 46km/h | 6285m | 6.9m/s | -21.7°C | 71.1% | 0hPa | 0V | 00:00:00 | 00:00:00 | 00:00:00 | |
| LY3OO-11 | 2026-09-02 11:48:04 | 54.86837 | 24.00158 | 90° | 49km/h | 6160m | 6.5m/s | -21.1°C | 75.6% | 0hPa | 0V | 00:00:00 | 00:00:00 | 00:00:00 | |
| LY3OO-11 | 2026-09-02 11:47:43 | 54.86848 | 23.99729 | 106° | 46km/h | 6020m | 7.7m/s | -20.1°C | 77.9% | 0hPa | 0V | 00:00:00 | 00:00:00 | 00:00:00 | |
| LY3OO-11 | 2026-09-02 11:47:23 | 54.86884 | 23.99308 | 101° | 46km/h | 5888m | 8.0m/s | -19.5°C | 69.3% | 0hPa | 0V | 00:00:00 | 00:00:00 | 00:00:00 | |
| LY3OO-11 | 2026-09-02 11:47:03 | 54.86916 | 23.98927 | 104° | 37km/h | 5753m | 6.6m/s | -18.4°C | 63.8% | 0hPa | 0V | 00:00:00 | 00:00:00 | 00:00:00 | |
| LY3OO-11 | 2026-09-02 11:46:43 | 54.86949 | 23.98590 | 94° | 38km/h | 5633m | 6.7m/s | -17.5°C | 76.7% | 0hPa | 0V | 00:00:00 | 00:00:00 | 00:00:00 | |
| LY3OO-11 | 2026-09-02 11:46:21 | 54.86987 | 23.98204 | 101° | 37km/h | 5505m | 7.1m/s | -16.7°C | 79.1% | 0hPa | 0V | 00:00:00 | 00:00:00 | 00:00:00 | |
| LY3OO-11 | 2026-09-02 11:46:01 | 54.87025 | 23.97864 | 99° | 44km/h | 5389m | 6.5m/s | -15.7°C | 78.7% | 0hPa | 0V | 00:00:00 | 00:00:00 | 00:00:00 | |
| LY3OO-11 | 2026-09-02 11:45:41 | 54.87071 | 23.97466 | 103° | 46km/h | 5260m | 6.2m/s | -14.8°C | 81.2% | 0hPa | 0V | 00:00:00 | 00:00:00 | 00:00:00 | |
| LY3OO-11 | 2026-09-02 11:45:20 | 54.87117 | 23.97095 | 102° | 40km/h | 5145m | 7.2m/s | -13.9°C | 80.5% | 0hPa | 0V | 00:00:00 | 00:00:00 | 00:00:00 | |
| LY3OO-11 | 2026-09-02 11:44:59 | 54.87152 | 23.96760 | 101° | 40km/h | 5025m | 6.6m/s | -12.8°C | 72.7% | 0hPa | 0V | 00:00:00 | 00:00:00 | 00:00:00 | |
| LY3OO-11 | 2026-09-02 11:44:39 | 54.87195 | 23.96379 | 105° | 46km/h | 4903m | 5.9m/s | -12.5°C | 83.2% | 0hPa | 0V | 00:00:00 | 00:00:00 | 00:00:00 | |
| LY3OO-11 | 2026-09-02 11:44:17 | 54.87241 | 23.95987 | 99° | 44km/h | 4769m | 7.3m/s | -11.5°C | 79.9% | 0hPa | 0V | 00:00:00 | 00:00:00 | 00:00:00 | |
| LY3OO-11 | 2026-09-02 11:43:56 | 54.87292 | 23.95603 | 107° | 46km/h | 4636m | 6.8m/s | -10.4°C | 78.4% | 0hPa | 0V | 00:00:00 | 00:00:00 | 00:00:00 | |
| LY3OO-11 | 2026-09-02 11:43:35 | 54.87339 | 23.95204 | 102° | 40km/h | 4499m | 6.4m/s | -9.4°C | 73.2% | 0hPa | 0V | 00:00:00 | 00:00:00 | 00:00:00 | |
| LY3OO-11 | 2026-09-02 11:43:15 | 54.87377 | 23.94843 | 98° | 38km/h | 4376m | 6.5m/s | -8.8°C | 72.8% | 0hPa | 0V | 00:00:00 | 00:00:00 | 00:00:00 | |
| LY3OO-11 | 2026-09-02 11:42:54 | 54.87424 | 23.94499 | 107° | 44km/h | 4254m | 6.6m/s | -8.1°C | 68.0% | 0hPa | 0V | 00:00:00 | 00:00:00 | 00:00:00 | |
| LY3OO-11 | 2026-09-02 11:42:33 | 54.87462 | 23.94144 | 105° | 38km/h | 4124m | 6.5m/s | -7.1°C | 70.0% | 0hPa | 0V | 00:00:00 | 00:00:00 | 00:00:00 | |
| LY3OO-11 | 2026-09-02 11:42:12 | 54.87498 | 23.93806 | 102° | 35km/h | 3993m | 6.5m/s | -6.3°C | 70.5% | 0hPa | 0V | 00:00:00 | 00:00:00 | 00:00:00 | |
| LY3OO-11 | 2026-09-02 11:41:51 | 54.87536 | 23.93490 | 104° | 35km/h | 3864m | 6.7m/s | -5.2°C | 65.3% | 0hPa | 0V | 00:00:00 | 00:00:00 | 00:00:00 | |
| LY3OO-11 | 2026-09-02 11:41:31 | 54.87586 | 23.93201 | 108° | 37km/h | 3737m | 6.9m/s | -4.4°C | 62.8% | 0hPa | 0V | 00:00:00 | 00:00:00 | 00:00:00 | |
| LY3OO-11 | 2026-09-02 11:41:10 | 54.87641 | 23.92853 | 107° | 40km/h | 3600m | 6.8m/s | -3.6°C | 62.4% | 0hPa | 0V | 00:00:00 | 00:00:00 | 00:00:00 | |
| LY3OO-11 | 2026-09-02 11:40:50 | 54.87680 | 23.92532 | 107° | 35km/h | 3476m | 7.3m/s | -2.6°C | 42.5% | 0hPa | 0V | 00:00:00 | 00:00:00 | 00:00:00 | |
| LY3OO-11 | 2026-09-02 11:40:09 | 54.87776 | 23.91873 | 107° | 40km/h | 3229m | 6.0m/s | -1.5°C | 61.6% | 0hPa | 0V | 00:00:00 | 00:00:00 | 00:00:00 | |
| LY3OO-11 | 2026-09-02 11:39:47 | 54.87837 | 23.91506 | 102° | 44km/h | 3102m | 6.6m/s | -0.5°C | 55.5% | 0hPa | 0V | 00:00:00 | 00:00:00 | 00:00:00 | |
| LY3OO-11 | 2026-09-02 11:39:27 | 54.87888 | 23.91159 | 102° | 40km/h | 2979m | 6.7m/s | -0.3°C | 61.8% | 0hPa | 0V | 00:00:00 | 00:00:00 | 00:00:00 | |
| LY3OO-11 | 2026-09-02 11:39:06 | 54.87905 | 23.90820 | 91° | 35km/h | 2858m | 6.9m/s | 0.1°C | 86.1% | 0hPa | 0V | 00:00:00 | 00:00:00 | 00:00:00 | |
| LY3OO-11 | 2026-09-02 11:38:46 | 54.87894 | 23.90509 | 93° | 35km/h | 2740m | 6.2m/s | 0.2°C | 93.5% | 0hPa | 0V | 00:00:00 | 00:00:00 | 00:00:00 | |
| LY3OO-11 | 2026-09-02 11:38:05 | 54.87888 | 23.89875 | 97° | 38km/h | 2490m | 6.7m/s | 1.7°C | 78.4% | 0hPa | 0V | 00:00:00 | 00:00:00 | 00:00:00 | |
| LY3OO-11 | 2026-09-02 11:37:23 | 54.87945 | 23.89197 | 98° | 27km/h | 2247m | 5.9m/s | 3.2°C | 88.6% | 0hPa | 0V | 00:00:00 | 00:00:00 | 00:00:00 | |
| LY3OO-11 | 2026-09-02 11:37:04 | 54.87985 | 23.88892 | 97° | 37km/h | 2121m | 7.5m/s | 3.9°C | 88.0% | 0hPa | 0V | 00:00:00 | 00:00:00 | 00:00:00 | |
| LY3OO-11 | 2026-09-02 11:36:42 | 54.88034 | 23.88567 | 98° | 42km/h | 1986m | 7.4m/s | 4.8°C | 87.7% | 0hPa | 0V | 00:00:00 | 00:00:00 | 00:00:00 | |
| LY3OO-11 | 2026-09-02 11:36:22 | 54.88089 | 23.88271 | 123° | 33km/h | 1853m | 6.2m/s | 5.8°C | 85.8% | 0hPa | 0V | 00:00:00 | 00:00:00 | 00:00:00 | |
| LY3OO-11 | 2026-09-02 11:36:01 | 54.88152 | 23.87981 | 111° | 37km/h | 1715m | 7.0m/s | 6.2°C | 93.5% | 0hPa | 0V | 00:00:00 | 00:00:00 | 00:00:00 | |
| LY3OO-11 | 2026-09-02 11:35:41 | 54.88211 | 23.87662 | 96° | 31km/h | 1580m | 6.9m/s | 7.3°C | 89.8% | 0hPa | 0V | 00:00:00 | 00:00:00 | 00:00:00 | |
| LY3OO-11 | 2026-09-02 11:35:20 | 54.88229 | 23.87370 | 94° | 37km/h | 1444m | 7.5m/s | 8.3°C | 84.2% | 0hPa | 0V | 00:00:00 | 00:00:00 | 00:00:00 | |
| LY3OO-11 | 2026-09-02 11:34:59 | 54.88252 | 23.86994 | 104° | 38km/h | 1303m | 7.8m/s | 8.9°C | 92.9% | 0hPa | 0V | 00:00:00 | 00:00:00 | 00:00:00 | |
| LY3OO-11 | 2026-09-02 11:34:39 | 54.88301 | 23.86677 | 99° | 38km/h | 1167m | 6.2m/s | 9.9°C | 87.9% | 0hPa | 0V | 00:00:00 | 00:00:00 | 00:00:00 | |
| LY3OO-11 | 2026-09-02 11:34:19 | 54.88341 | 23.86290 | 97° | 44km/h | 1034m | 7.4m/s | 10.9°C | 0% | 0hPa | 0V | 00:00:00 | 00:00:00 | 00:00:00 | |
| LY3OO-11 | 2026-09-02 11:33:58 | 54.88370 | 23.85880 | 100° | 42km/h | 888m | 7.2m/s | 0°C | 0% | 0hPa | 0V | 00:00:00 | 00:00:00 | 00:00:00 | |
| LY3OO-11 | 2026-09-02 11:33:38 | 54.88382 | 23.85487 | 94° | 44km/h | 759m | 4.7m/s | 0°C | 0% | 0hPa | 0V | 00:00:00 | 00:00:00 | 00:00:00 |